Wajima Noto Airport

About
Name: Wajima Noto Airport
Identifier:  NTQ/RJNW
Operator:  Ministry of Transport
Public/Private:  Public
Local Time:  21. Sep 17:47 JST
Description: Noto Airport, also unofficially known as Wajima Airport is a domestic airport located 6.4 NM south southeast of the city of Wajima on the Noto Peninsula of Ishikawa Prefecture, Japan.
Source: Wikipedia
Location
Wajima
  Japan

Runways
Identifier Length (m/ft) Surface
07/25 2,000/6,562 Asphalt concrete
Statistics
Flights per Day:
3 flights
Distance: 318km (197mi)
Flights delayed:
86% (0 flights per day delayed)
Delay Average: 6 minutes
Current Weather
 19 C (Humidity: 88%)
  4kt (7km/h / 4mph) from 30°
  Few clouds at 1,000 feet (304 meter)
  Broken clouds at 8,000 feet (2,438 meter)
  Overcast at 10,000 feet (3,048 meter)
  9km (6 mi.)
 METAR RJNW 210800Z 03004KT 9999 FEW010 BKN080 OVC100 19/17 Q1021

Current Flights

Arrivals
Number Arrival From Airline
Landed NH749 15:50 +7  Tokyo  All Nippon Airways

Current Delays

Departures
N/A
Arrivals
N/A

Destinations

Top Destinations
Airport Flights
per week
Seats
per week
  Tokyo (HND) 26 4,283 3 611

Airlines & Planes

Top Airlines
Airline Flights
per Day
Seats
per Day
  All Nippon Airways 3 611
Top Plane Types
Model Flights Seats
Boeing B737-800 1.9/day 310/day 310.26666666666665
Airbus A320 1.7/day 282/day 282.2
Airbus A321 0.2/day 19/day 19.4
Airbus A321 Neo 0.0/day - 0